Time;durP1;ratioP1;P1;durP2;ratioP2;P2;SDS_P1;SDS_P2;PMS_P1;PMS_P2;Temp;Humidity;BMP_temperature;BMP_pressure;BME280_temperature;BME280_humidity;BME280_pressure;Samples;Min_cycle;Max_cycle;Signal;HPM_P1;HPM_P2
2021/10/08 00:00:10;;;;;;;7.73;5.37;;;;;;;8.44;100.00;102714.31;7391460;19;20400;-49
2021/10/08 00:02:42;;;;;;;11.10;5.70;;;;;;;8.38;100.00;102709.56;7397280;19;20734;-55
2021/10/08 00:05:12;;;;;;;10.43;6.77;;;;;;;8.27;100.00;102713.84;7392392;19;20376;-51
2021/10/08 00:07:42;;;;;;;9.33;6.20;;;;;;;8.35;100.00;102717.94;7399708;19;20395;-54
2021/10/08 00:10:12;;;;;;;7.70;5.50;;;;;;;8.33;100.00;102722.06;7390514;19;20664;-53
2021/10/08 00:12:41;;;;;;;10.90;7.17;;;;;;;8.34;100.00;102728.09;7403844;19;20400;-50
2021/10/08 00:15:11;;;;;;;9.00;6.20;;;;;;;8.33;100.00;102727.22;7397746;19;20404;-50
2021/10/08 00:17:43;;;;;;;7.73;5.83;;;;;;;8.28;100.00;102732.72;7402349;19;20695;-53
2021/10/08 00:20:13;;;;;;;8.73;6.17;;;;;;;8.42;100.00;102736.44;7402951;19;20389;-50
2021/10/08 00:22:43;;;;;;;8.83;5.80;;;;;;;8.42;100.00;102736.44;7405712;19;20391;-50
2021/10/08 00:25:12;;;;;;;12.30;6.93;;;;;;;8.40;100.00;102735.44;7398084;19;20475;-55
2021/10/08 00:27:42;;;;;;;8.30;6.00;;;;;;;8.38;100.00;102730.16;7404673;19;20398;-52
2021/10/08 00:30:12;;;;;;;12.43;5.83;;;;;;;8.28;100.00;102732.72;7399294;19;20383;-53
2021/10/08 00:32:44;;;;;;;10.13;6.17;;;;;;;8.29;100.00;102737.09;7405324;19;20456;-51
2021/10/08 00:35:14;;;;;;;7.53;5.83;;;;;;;8.30;100.00;102728.63;7387044;19;20447;-52
2021/10/08 00:37:43;;;;;;;10.20;6.27;;;;;;;8.32;100.00;102737.38;7404199;19;20392;-53
2021/10/08 00:40:14;;;;;;;7.50;5.73;;;;;;;8.31;100.00;102733.00;7401514;19;20687;-54
2021/10/08 00:42:51;;;;;;;9.57;5.90;;;;;;;8.34;100.00;102739.28;7405173;19;20442;-55
2021/10/08 00:45:21;;;;;;;11.23;6.80;;;;;;;8.33;100.00;102734.00;7396580;19;20391;-53
2021/10/08 00:48:00;;;;;;;10.50;6.23;;;;;;;8.15;100.00;102726.56;7405563;19;20392;-55
2021/10/08 00:50:30;;;;;;;9.00;6.60;;;;;;;8.19;100.00;102731.19;7399593;19;20415;-51
2021/10/08 00:53:00;;;;;;;8.90;6.50;;;;;;;8.23;100.00;102730.69;7404947;19;20395;-55
2021/10/08 00:55:29;;;;;;;8.47;6.07;;;;;;;8.26;100.00;102737.78;7397387;19;20419;-55
2021/10/08 00:57:59;;;;;;;9.47;5.70;;;;;;;8.20;100.00;102730.44;7404947;19;20463;-56
2021/10/08 01:00:30;;;;;;;8.93;6.30;;;;;;;8.17;100.00;102726.69;7398029;19;20406;-55
2021/10/08 01:03:02;;;;;;;10.80;6.63;;;;;;;8.10;100.00;102722.69;7404592;19;20426;-55
2021/10/08 01:05:31;;;;;;;8.63;6.10;;;;;;;8.05;100.00;102716.31;7399739;19;20432;-54
2021/10/08 01:08:01;;;;;;;8.67;5.80;;;;;;;8.07;100.00;102719.91;7404522;19;20400;-56
2021/10/08 01:10:31;;;;;;;9.50;5.67;;;;;;;8.11;100.00;102715.13;7397493;19;20426;-56
2021/10/08 01:13:01;;;;;;;8.20;5.90;;;;;;;8.09;100.00;102721.81;7403881;19;20411;-52
2021/10/08 01:15:31;;;;;;;9.03;5.53;;;;;;;8.08;100.00;102724.25;7397458;19;20877;-53
2021/10/08 01:18:03;;;;;;;7.23;6.00;;;;;;;8.08;100.00;102721.69;7400259;19;20400;-50
2021/10/08 01:20:36;;;;;;;8.80;5.50;;;;;;;8.08;100.00;102719.13;7400264;19;20479;-54
2021/10/08 01:23:06;;;;;;;10.07;7.07;;;;;;;8.08;100.00;102725.16;7403977;19;20664;-50
2021/10/08 01:25:38;;;;;;;9.10;6.67;;;;;;;8.17;100.00;102719.91;7395749;19;20490;-57
2021/10/08 01:28:08;;;;;;;9.53;5.50;;;;;;;8.07;100.00;102723.38;7404210;19;20388;-49
2021/10/08 01:30:38;;;;;;;6.50;5.07;;;;;;;8.00;100.00;102720.16;7398889;19;20486;-52
2021/10/08 01:33:07;;;;;;;8.20;5.70;;;;;;;8.03;100.00;102720.41;7403611;19;20887;-54
2021/10/08 01:35:40;;;;;;;7.77;5.73;;;;;;;7.96;100.00;102714.75;7400081;19;20487;-50
2021/10/08 01:38:09;;;;;;;6.60;5.30;;;;;;;7.95;100.00;102715.53;7403730;19;20633;-50
2021/10/08 01:40:39;;;;;;;16.03;6.70;;;;;;;8.07;100.00;102718.25;7396522;19;20413;-51
2021/10/08 01:43:08;;;;;;;9.40;6.57;;;;;;;8.19;100.00;102712.28;7403117;19;20467;-55
2021/10/08 01:45:38;;;;;;;9.10;6.03;;;;;;;8.17;100.00;102709.63;7395587;19;20741;-52
2021/10/08 01:48:08;;;;;;;9.30;5.77;;;;;;;8.19;100.00;102710.63;7402758;19;20398;-51
2021/10/08 01:50:40;;;;;;;13.30;5.83;;;;;;;8.19;100.00;102717.44;7400270;19;20486;-52
2021/10/08 01:53:10;;;;;;;12.30;6.67;;;;;;;8.11;100.00;102711.69;7402987;19;20403;-53
2021/10/08 01:55:39;;;;;;;9.27;5.60;;;;;;;7.99;100.00;102713.22;7395479;19;20415;-54
2021/10/08 01:58:09;;;;;;;18.97;7.03;;;;;;;7.91;100.00;102710.91;7403101;19;20463;-52
2021/10/08 02:00:38;;;;;;;9.57;6.67;;;;;;;7.89;100.00;102711.56;7396093;19;20423;-53
2021/10/08 02:03:08;;;;;;;7.73;6.33;;;;;;;7.92;100.00;102717.84;7405994;19;20400;-54
2021/10/08 02:05:40;;;;;;;11.10;6.37;;;;;;;7.92;100.00;102724.66;7398620;19;20422;-53
2021/10/08 02:08:09;;;;;;;9.63;6.03;;;;;;;7.96;100.00;102722.44;7402632;19;20390;-54
2021/10/08 02:10:39;;;;;;;12.53;6.60;;;;;;;7.94;100.00;102726.56;7398797;19;20957;-53
2021/10/08 02:13:08;;;;;;;6.63;5.73;;;;;;;7.93;100.00;102740.22;7402273;19;20767;-53
2021/10/08 02:15:38;;;;;;;11.67;6.53;;;;;;;7.90;100.00;102742.50;7394845;19;20430;-55
2021/10/08 02:18:07;;;;;;;8.83;6.50;;;;;;;7.87;100.00;102733.63;7402305;19;20448;-51
2021/10/08 02:20:39;;;;;;;8.37;6.37;;;;;;;7.91;100.00;102741.75;7399108;19;20403;-54
2021/10/08 02:23:10;;;;;;;9.00;5.80;;;;;;;7.97;100.00;102746.50;7406285;19;20495;-54
2021/10/08 02:25:39;;;;;;;9.77;6.40;;;;;;;8.04;100.00;102737.63;7394688;19;20415;-54
2021/10/08 02:28:09;;;;;;;9.13;6.43;;;;;;;8.06;100.00;102743.81;7401949;19;20842;-53
2021/10/08 02:30:38;;;;;;;7.87;6.07;;;;;;;8.04;100.00;102746.25;7395294;19;20419;-54
2021/10/08 02:33:07;;;;;;;8.90;5.60;;;;;;;7.97;100.00;102744.84;7403773;19;20430;-50
2021/10/08 02:35:39;;;;;;;10.83;6.10;;;;;;;7.92;100.00;102743.56;7397927;19;20873;-53
2021/10/08 02:38:09;;;;;;;10.27;6.37;;;;;;;7.82;100.00;102743.53;7401668;19;20395;-55
2021/10/08 02:40:39;;;;;;;9.93;6.50;;;;;;;7.76;100.00;102751.63;7395733;19;20434;-51
2021/10/08 02:43:08;;;;;;;10.83;7.00;;;;;;;7.71;100.00;102752.91;7401294;19;20510;-53
2021/10/08 02:45:38;;;;;;;9.50;6.60;;;;;;;7.66;100.00;102747.38;7393875;19;21083;-54
2021/10/08 02:48:07;;;;;;;12.63;7.83;;;;;;;7.69;100.00;102755.34;7401384;19;20390;-54
2021/10/08 02:50:40;;;;;;;19.37;7.43;;;;;;;7.65;100.00;102753.25;7398241;19;20479;-53
2021/10/08 02:53:09;;;;;;;11.07;7.47;;;;;;;7.63;100.00;102754.81;7401019;19;20403;-51
2021/10/08 02:55:39;;;;;;;8.90;6.20;;;;;;;7.58;100.00;102761.22;7394269;19;20426;-55
2021/10/08 02:58:09;;;;;;;10.53;7.60;;;;;;;7.61;100.00;102760.59;7401056;19;20887;-54
2021/10/08 03:00:38;;;;;;;9.30;6.73;;;;;;;7.62;100.00;102760.72;7394672;19;20741;-54
2021/10/08 03:03:08;;;;;;;9.33;6.60;;;;;;;7.56;100.00;102755.06;7400503;19;20711;-55
2021/10/08 03:05:40;;;;;;;16.90;10.20;;;;;;;7.81;100.00;102763.19;7385945;19;20925;-55
2021/10/08 03:08:10;;;;;;;12.17;8.00;;;;;;;7.76;100.00;102766.13;7400679;19;20447;-54
2021/10/08 03:10:39;;;;;;;17.43;10.50;;;;;;;7.70;100.00;102761.38;7394042;19;20805;-53
2021/10/08 03:13:09;;;;;;;15.50;9.20;;;;;;;7.52;100.00;102758.13;7400353;19;20423;-49
2021/10/08 03:15:38;;;;;;;14.40;9.70;;;;;;;7.44;100.00;102757.47;7393304;19;20499;-53
2021/10/08 03:18:08;;;;;;;17.10;10.80;;;;;;;7.44;100.00;102762.63;7400239;19;20388;-53
2021/10/08 03:20:40;;;;;;;16.73;10.60;;;;;;;7.43;100.00;102764.28;7397460;19;20411;-51
2021/10/08 03:23:09;;;;;;;18.07;11.20;;;;;;;7.45;100.00;102763.50;7401826;19;20499;-52
2021/10/08 03:25:39;;;;;;;14.83;9.87;;;;;;;7.44;100.00;102762.63;7392731;19;20916;-54
2021/10/08 03:28:09;;;;;;;19.63;8.93;;;;;;;7.38;100.00;102768.09;7400026;19;20901;-53
2021/10/08 03:30:39;;;;;;;17.40;9.70;;;;;;;7.33;100.00;102773.63;7393167;19;20745;-51
2021/10/08 03:33:08;;;;;;;10.93;7.80;;;;;;;7.23;100.00;102777.94;7399814;19;20419;-54
2021/10/08 03:35:42;;;;;;;11.23;7.73;;;;;;;7.19;100.00;102769.84;7396214;19;20632;-52
2021/10/08 03:38:14;;;;;;;16.17;9.40;;;;;;;7.21;100.00;102773.41;7399920;19;20388;-53
2021/10/08 03:40:48;;;;;;;18.30;9.50;;;;;;;7.19;100.00;102768.19;7393200;19;20430;-54
2021/10/08 03:43:17;;;;;;;16.70;9.93;;;;;;;7.20;100.00;102772.53;7398344;19;20680;-55
2021/10/08 03:45:53;;;;;;;16.40;9.00;;;;;;;7.30;100.00;102775.13;7391429;19;20423;-54
2021/10/08 03:48:36;;;;;;;20.00;10.93;;;;;;;7.39;100.00;102775.03;7399813;19;20407;-55
2021/10/08 03:51:08;;;;;;;17.77;9.50;;;;;;;7.40;100.00;102781.97;7396187;19;20706;-55
2021/10/08 03:53:37;;;;;;;26.87;10.63;;;;;;;7.41;100.00;102782.88;7398959;19;20798;-53
2021/10/08 03:56:07;;;;;;;26.47;12.37;;;;;;;7.34;100.00;102777.97;7393944;19;20435;-53
2021/10/08 03:58:36;;;;;;;66.77;19.40;;;;;;;7.33;100.00;102779.63;7399434;19;20391;-53
2021/10/08 04:01:06;;;;;;;16.03;8.73;;;;;;;7.19;100.00;102783.59;7395759;19;20483;-51
2021/10/08 04:03:35;;;;;;;12.20;7.87;;;;;;;7.13;100.00;102780.47;7398369;19;20431;-55
2021/10/08 04:06:07;;;;;;;13.83;7.30;;;;;;;7.12;100.00;102784.69;7395926;19;20430;-49
2021/10/08 04:08:37;;;;;;;14.17;7.40;;;;;;;7.10;100.00;102782.75;7399376;19;20402;-50
2021/10/08 04:11:06;;;;;;;11.10;7.30;;;;;;;7.02;100.00;102779.50;7392305;19;20421;-51
2021/10/08 04:13:36;;;;;;;13.87;7.87;;;;;;;7.07;100.00;102785.06;7398157;19;20412;-50
2021/10/08 04:16:06;;;;;;;15.03;7.57;;;;;;;7.12;100.00;102783.78;7395057;19;20483;-50
2021/10/08 04:18:35;;;;;;;17.10;8.97;;;;;;;6.99;100.00;102777.56;7398911;19;20409;-53
2021/10/08 04:21:08;;;;;;;13.07;7.77;;;;;;;6.89;100.00;102774.97;7395673;19;20408;-50
2021/10/08 04:23:37;;;;;;;10.20;7.10;;;;;;;6.98;100.00;102780.00;7397973;19;20482;-54
2021/10/08 04:26:07;;;;;;;13.70;9.20;;;;;;;7.08;100.00;102766.31;7390857;19;20430;-50
2021/10/08 04:28:37;;;;;;;16.93;9.20;;;;;;;7.33;100.00;102774.50;7398610;19;20846;-49
2021/10/08 04:31:06;;;;;;;19.53;10.73;;;;;;;7.29;100.00;102773.34;7392192;19;20494;-52
2021/10/08 04:33:36;;;;;;;19.80;11.07;;;;;;;7.10;100.00;102773.41;7397746;19;20424;-49
2021/10/08 04:36:08;;;;;;;13.63;8.33;;;;;;;7.00;100.00;102774.25;7394135;19;20482;-49
2021/10/08 04:38:38;;;;;;;10.63;8.03;;;;;;;7.04;100.00;102775.44;7398382;19;20459;-49
2021/10/08 04:41:07;;;;;;;15.33;8.87;;;;;;;7.02;100.00;102779.50;7391562;19;20490;-52
2021/10/08 04:43:37;;;;;;;13.17;8.07;;;;;;;7.00;100.00;102778.47;7397492;19;20422;-50
2021/10/08 04:46:06;;;;;;;21.33;9.67;;;;;;;6.98;100.00;102783.47;7390266;19;20487;-49
2021/10/08 04:48:36;;;;;;;36.33;12.97;;;;;;;6.95;100.00;102790.00;7398155;19;20388;-50
2021/10/08 04:51:05;;;;;;;25.77;11.23;;;;;;;7.06;100.00;102794.41;7394755;19;20490;-47
2021/10/08 04:53:37;;;;;;;25.43;10.93;;;;;;;6.90;100.00;102797.28;7397947;19;20483;-48
2021/10/08 04:56:07;;;;;;;20.40;11.30;;;;;;;6.92;100.00;102795.75;7397310;19;20413;-51
2021/10/08 04:58:36;;;;;;;21.87;10.17;;;;;;;6.95;100.00;102795.13;7405345;19;20450;-53
2021/10/08 05:01:06;;;;;;;22.27;11.73;;;;;;;6.96;100.00;102795.28;7398420;19;20415;-50
2021/10/08 05:03:35;;;;;;;28.50;11.70;;;;;;;7.14;100.00;102798.56;7404015;19;20442;-51
2021/10/08 05:06:05;;;;;;;19.97;9.80;;;;;;;7.23;100.00;102795.91;7400688;19;20502;-55
2021/10/08 05:08:37;;;;;;;22.90;9.80;;;;;;;7.22;100.00;102799.25;7402465;19;20384;-49
2021/10/08 05:11:06;;;;;;;16.23;9.13;;;;;;;7.30;100.00;102798.25;7399827;19;20737;-51
2021/10/08 05:13:36;;;;;;;13.83;8.60;;;;;;;7.42;100.00;102795.88;7403705;19;20434;-52
2021/10/08 05:16:06;;;;;;;13.83;9.30;;;;;;;7.26;100.00;102800.41;7396992;19;20415;-52
2021/10/08 05:18:36;;;;;;;14.30;8.60;;;;;;;7.27;100.00;102799.63;7404477;19;20467;-50
2021/10/08 05:21:05;;;;;;;13.10;8.70;;;;;;;7.39;100.00;102789.56;7401937;19;20425;-50
2021/10/08 05:23:37;;;;;;;13.70;10.00;;;;;;;7.16;100.00;102791.91;7403495;19;20482;-54
2021/10/08 05:26:07;;;;;;;14.30;9.50;;;;;;;7.08;100.00;102795.44;7396260;19;20407;-55
2021/10/08 05:28:36;;;;;;;13.07;9.30;;;;;;;7.08;100.00;102798.00;7401976;19;20455;-53
2021/10/08 05:31:06;;;;;;;26.53;15.33;;;;;;;7.13;100.00;102796.75;7400768;19;20419;-52
2021/10/08 05:33:36;;;;;;;56.67;32.23;;;;;;;7.21;100.00;102802.59;7403251;19;20881;-54
2021/10/08 05:36:06;;;;;;;27.40;17.70;;;;;;;7.11;100.00;102808.56;7400090;19;20444;-52
2021/10/08 05:38:38;;;;;;;14.97;10.40;;;;;;;7.30;100.00;102805.94;7403780;19;20376;-51
2021/10/08 05:41:11;;;;;;;14.57;9.90;;;;;;;7.21;100.00;102802.59;7397171;19;20448;-51
2021/10/08 05:43:40;;;;;;;14.33;9.30;;;;;;;7.13;100.00;102801.91;7402735;19;20683;-53
2021/10/08 05:46:10;;;;;;;14.97;10.00;;;;;;;7.06;100.00;102802.13;7396414;19;20482;-54
2021/10/08 05:48:39;;;;;;;17.37;10.70;;;;;;;7.00;100.00;102801.56;7401635;19;20401;-55
2021/10/08 05:51:09;;;;;;;15.77;9.87;;;;;;;6.96;100.00;102812.31;7400374;19;20419;-50
2021/10/08 05:53:41;;;;;;;30.43;14.20;;;;;;;6.88;100.00;102811.66;7402494;19;20431;-51
2021/10/08 05:56:11;;;;;;;37.60;17.17;;;;;;;6.86;100.00;102814.06;7395815;19;20474;-51
2021/10/08 05:58:40;;;;;;;24.23;12.70;;;;;;;6.82;100.00;102829.06;7403280;19;20467;-51
2021/10/08 06:01:09;;;;;;;17.00;11.30;;;;;;;6.86;100.00;102826.91;7396816;19;20475;-54
2021/10/08 06:03:39;;;;;;;17.47;11.20;;;;;;;6.88;100.00;102830.50;7404757;19;20464;-52
2021/10/08 06:06:09;;;;;;;20.33;11.97;;;;;;;6.89;100.00;102833.97;7398316;19;20420;-48
2021/10/08 06:08:41;;;;;;;24.57;12.17;;;;;;;6.93;100.00;102828.38;7401353;19;20459;-49
2021/10/08 06:11:11;;;;;;;25.17;12.23;;;;;;;6.97;100.00;102834.69;7396476;19;20487;-53
2021/10/08 06:13:40;;;;;;;20.50;12.50;;;;;;;6.88;100.00;102840.78;7401513;19;20432;-50
2021/10/08 06:16:09;;;;;;;18.73;11.90;;;;;;;6.85;100.00;102843.06;7396824;19;20427;-55
2021/10/08 06:18:39;;;;;;;23.93;12.27;;;;;;;6.84;100.00;102845.50;7402611;19;20392;-55
2021/10/08 06:21:08;;;;;;;25.20;12.10;;;;;;;6.82;100.00;102847.91;7399140;19;20425;-52
2021/10/08 06:23:40;;;;;;;19.70;12.43;;;;;;;6.83;100.00;102843.69;7401525;19;20432;-54
2021/10/08 06:26:10;;;;;;;21.30;12.20;;;;;;;6.85;100.00;102845.63;7395017;19;20407;-54
2021/10/08 06:28:39;;;;;;;25.47;12.37;;;;;;;6.85;100.00;102849.84;7401461;19;20618;-55
2021/10/08 06:31:09;;;;;;;20.37;11.97;;;;;;;6.85;100.00;102849.84;7395537;19;20444;-55
2021/10/08 06:33:38;;;;;;;23.80;12.60;;;;;;;6.86;100.00;102860.28;7401268;19;20450;-55
2021/10/08 06:36:08;;;;;;;31.97;15.27;;;;;;;6.87;100.00;102859.50;7397968;19;20493;-55
2021/10/08 06:38:37;;;;;;;30.60;14.67;;;;;;;6.89;100.00;102868.22;7404495;19;20418;-55
2021/10/08 06:41:09;;;;;;;25.67;13.87;;;;;;;6.96;100.00;102869.69;7396691;19;20444;-54
2021/10/08 06:43:39;;;;;;;25.57;13.43;;;;;;;7.02;100.00;102860.00;7404718;19;20427;-55
2021/10/08 06:46:08;;;;;;;37.03;21.60;;;;;;;7.12;100.00;102869.41;7396630;19;20420;-53
2021/10/08 06:48:38;;;;;;;27.20;14.10;;;;;;;7.22;100.00;102871.13;7401070;19;20392;-54
2021/10/08 06:51:07;;;;;;;27.10;13.67;;;;;;;7.23;100.00;102867.81;7376104;19;20463;-53
2021/10/08 06:53:36;;;;;;;23.10;13.20;;;;;;;7.35;100.00;102874.78;7399828;19;20416;-49
2021/10/08 06:56:09;;;;;;;73.30;36.40;;;;;;;7.51;100.00;102874.50;7393731;19;20425;-54
2021/10/08 06:58:38;;;;;;;59.43;29.37;;;;;;;7.59;100.00;102870.91;7404972;19;20391;-52
2021/10/08 07:01:08;;;;;;;72.57;36.20;;;;;;;7.71;100.00;102881.38;7393609;19;20468;-50
2021/10/08 07:03:37;;;;;;;51.97;28.40;;;;;;;7.80;100.00;102876.16;7400174;19;20771;-51
2021/10/08 07:06:07;;;;;;;59.60;31.10;;;;;;;7.92;100.00;102876.31;7393857;19;20423;-51
2021/10/08 07:08:36;;;;;;;49.77;22.20;;;;;;;8.00;100.00;102875.28;7399883;19;20388;-49
2021/10/08 07:11:08;;;;;;;31.67;19.90;;;;;;;8.14;100.00;102875.59;7394106;19;20900;-49
2021/10/08 07:13:39;;;;;;;51.30;28.80;;;;;;;8.20;100.00;102883.84;7399567;19;20423;-51
2021/10/08 07:16:08;;;;;;;53.67;29.50;;;;;;;8.33;100.00;102890.91;7391459;19;20420;-52
2021/10/08 07:18:45;;;;;;;91.93;45.37;;;;;;;8.43;100.00;102883.22;7400241;19;20899;-55
2021/10/08 07:21:15;;;;;;;43.07;24.40;;;;;;;8.45;100.00;102881.66;7394046;19;20427;-52
2021/10/08 07:23:47;;;;;;;33.70;19.27;;;;;;;8.51;100.00;102882.22;7399558;19;20415;-54
2021/10/08 07:26:21;;;;;;;50.50;25.23;;;;;;;8.60;100.00;102887.22;7392822;19;20495;-56
2021/10/08 07:28:51;;;;;;;48.63;26.63;;;;;;;8.93;100.00;102887.34;7399367;19;20408;-52
2021/10/08 07:31:20;;;;;;;26.30;17.60;;;;;;;9.20;100.00;102887.81;7375993;19;20430;-52
2021/10/08 07:33:50;;;;;;;27.93;18.20;;;;;;;9.42;100.00;102887.88;7399071;19;20464;-56
2021/10/08 07:36:19;;;;;;;33.13;20.57;;;;;;;9.52;100.00;102881.78;7395801;19;20877;-54
2021/10/08 07:38:49;;;;;;;32.77;19.43;;;;;;;9.59;100.00;102888.34;7399650;19;20396;-54
2021/10/08 07:41:23;;;;;;;41.77;24.70;;;;;;;9.66;100.00;102892.28;7392792;19;20411;-55
2021/10/08 07:43:52;;;;;;;36.23;23.23;;;;;;;9.69;100.00;102896.00;7398761;19;20483;-53
2021/10/08 07:46:24;;;;;;;36.77;21.50;;;;;;;9.72;100.00;102895.34;7391652;19;20419;-54
2021/10/08 07:48:53;;;;;;;53.90;29.37;;;;;;;9.92;100.00;102898.59;7400516;19;20882;-51
2021/10/08 07:51:23;;;;;;;33.63;19.50;;;;;;;10.03;100.00;102900.34;7392148;19;20871;-53
2021/10/08 07:53:53;;;;;;;50.80;29.17;;;;;;;10.13;100.00;102900.31;7398287;19;20423;-54
2021/10/08 07:56:25;;;;;;;28.10;17.07;;;;;;;10.23;100.00;102898.41;7390363;19;20430;-49
2021/10/08 07:58:54;;;;;;;33.77;20.47;;;;;;;10.24;100.00;102898.53;7399238;19;20459;-53
2021/10/08 08:01:23;;;;;;;24.40;14.97;;;;;;;10.21;100.00;102895.72;7392509;19;20415;-53
2021/10/08 08:03:53;;;;;;;36.07;19.83;;;;;;;10.31;100.00;102894.75;7398473;19;20715;-54
2021/10/08 08:06:22;;;;;;;44.83;27.17;;;;;;;10.67;100.00;102900.06;7394603;19;20423;-52
2021/10/08 08:08:52;;;;;;;40.13;20.30;;;;;;;10.77;100.00;102906.81;7398778;19;20411;-54
2021/10/08 08:11:21;;;;;;;27.97;17.23;;;;;;;10.82;100.00;102902.88;7394017;19;20465;-51
2021/10/08 08:13:53;;;;;;;33.87;22.10;;;;;;;10.81;100.00;102901.09;7397579;19;20427;-54
2021/10/08 08:16:23;;;;;;;35.97;24.17;;;;;;;10.89;100.00;102887.09;7391439;19;20486;-53
2021/10/08 08:18:52;;;;;;;31.63;21.27;;;;;;;10.92;100.00;102894.16;7402057;19;20392;-50
2021/10/08 08:21:26;;;;;;;29.73;19.77;;;;;;;11.03;100.00;102894.97;7395370;19;20419;-51
2021/10/08 08:23:55;;;;;;;36.53;24.47;;;;;;;11.09;100.00;102890.25;7397559;19;20487;-52
2021/10/08 08:26:25;;;;;;;23.27;16.70;;;;;;;11.11;100.00;102890.34;7390705;19;20490;-52
2021/10/08 08:28:57;;;;;;;50.63;26.50;;;;;;;11.19;100.00;102902.16;7402378;19;20688;-56
2021/10/08 08:31:26;;;;;;;29.77;19.03;;;;;;;11.32;100.00;102888.44;7401693;19;20423;-53
2021/10/08 08:33:56;;;;;;;42.50;25.87;;;;;;;11.36;100.00;102895.63;7404154;19;20870;-52
2021/10/08 08:36:25;;;;;;;56.67;32.93;;;;;;;11.43;100.00;102892.69;7401279;19;20482;-53
2021/10/08 08:38:57;;;;;;;66.57;36.33;;;;;;;11.54;100.00;102892.59;7405348;19;20470;-53
2021/10/08 08:41:26;;;;;;;48.70;29.57;;;;;;;11.70;100.00;102899.75;7400537;19;20725;-55
2021/10/08 08:44:05;;;;;;;25.30;16.60;;;;;;;11.77;100.00;102896.81;7403727;19;20443;-53
2021/10/08 08:46:35;;;;;;;24.73;15.23;;;;;;;11.79;100.00;102897.81;7398667;19;20490;-54
2021/10/08 08:49:06;;;;;;;23.00;13.27;;;;;;;11.88;100.00;102888.13;7406819;19;20650;-49
2021/10/08 08:51:36;;;;;;;26.70;17.70;;;;;;;11.98;100.00;102884.50;7401094;19;20461;-53
2021/10/08 08:54:07;;;;;;;23.00;15.97;;;;;;;12.09;100.00;102889.53;7403153;19;20427;-50
2021/10/08 08:56:37;;;;;;;20.00;14.87;;;;;;;12.20;100.00;102886.00;7397352;19;20423;-53
2021/10/08 08:59:11;;;;;;;24.93;15.40;;;;;;;12.33;100.00;102882.59;7409355;19;20403;-56
2021/10/08 09:02:00;;;;;;;24.97;13.27;;;;;;;12.42;100.00;102883.19;7398746;19;20438;-55
2021/10/08 09:04:33;;;;;;;24.17;15.50;;;;;;;12.48;100.00;102885.31;7401968;19;20384;-55
2021/10/08 09:07:03;;;;;;;13.80;9.20;;;;;;;12.53;100.00;102888.22;7398726;19;20422;-54
2021/10/08 09:09:32;;;;;;;14.53;9.10;;;;;;;12.64;100.00;102886.34;7406440;19;20420;-57
2021/10/08 09:12:02;;;;;;;13.80;9.20;;;;;;;12.69;100.00;102879.78;7398246;19;20423;-54
2021/10/08 09:14:34;;;;;;;16.10;9.00;;;;;;;12.76;100.00;102879.41;7402165;19;20416;-51
2021/10/08 09:17:07;;;;;;;18.93;12.33;;;;;;;12.90;100.00;102876.81;7397831;19;20702;-54
2021/10/08 09:20:06;;;;;;;11.43;8.03;;;;;;;12.95;100.00;102871.16;7404058;19;20382;-56
2021/10/08 09:22:51;;;;;;;12.77;8.77;;;;;;;13.05;100.00;102880.44;7403651;19;20495;-55
2021/10/08 09:25:26;;;;;;;10.50;7.50;;;;;;;13.11;100.00;102877.34;7397832;19;20909;-57
2021/10/08 09:27:58;;;;;;;12.27;7.50;;;;;;;13.20;100.00;102882.22;7404064;19;20668;-56
2021/10/08 09:30:38;;;;;;;10.40;6.40;;;;;;;13.29;100.00;102879.34;7394785;19;20410;-56
2021/10/08 09:33:09;;;;;;;12.07;6.40;;;;;;;13.48;100.00;102873.66;7403150;19;20415;-57
2021/10/08 09:35:40;;;;;;;8.70;5.53;;;;;;;13.52;100.00;102874.75;7399930;19;20466;-57
2021/10/08 09:38:12;;;;;;;8.43;6.13;;;;;;;13.59;100.00;102872.63;7403952;19;20388;-57
2021/10/08 09:40:45;;;;;;;9.07;6.60;;;;;;;13.73;100.00;102875.19;7395596;19;20691;-57
2021/10/08 09:43:25;;;;;;;8.53;5.80;;;;;;;13.84;100.00;102873.28;7405016;19;20737;-57
2021/10/08 09:45:59;;;;;;;9.80;5.60;;;;;;;13.94;100.00;102874.75;7400188;19;20460;-51
2021/10/08 09:48:41;;;;;;;6.93;5.67;;;;;;;13.94;100.00;102880.81;7406990;19;20396;-53
2021/10/08 09:51:12;;;;;;;6.93;4.40;;;;;;;13.98;100.00;102881.91;7402615;19;20435;-53
2021/10/08 09:53:55;;;;;;;8.20;5.43;;;;;;;14.12;100.00;102877.56;7405872;19;20491;-51
2021/10/08 09:56:35;;;;;;;7.30;5.13;;;;;;;14.14;100.00;102869.06;7398336;19;20514;-53
2021/10/08 09:59:06;;;;;;;10.63;6.50;;;;;;;14.25;100.00;102872.31;7407316;19;20431;-55
2021/10/08 10:01:39;;;;;;;7.90;5.00;;;;;;;14.48;100.00;102866.69;7400465;19;20516;-52
2021/10/08 10:04:10;;;;;;;6.77;5.03;;;;;;;14.55;100.00;102872.34;7405721;19;20447;-56
2021/10/08 10:06:42;;;;;;;9.90;5.10;;;;;;;14.53;100.00;102875.66;7398324;19;20519;-52
2021/10/08 10:09:12;;;;;;;8.67;4.87;;;;;;;14.56;100.00;102868.06;7406574;19;20402;-54
2021/10/08 10:11:41;;;;;;;8.33;5.70;;;;;;;14.78;100.00;102864.16;7399328;19;20454;-54
2021/10/08 10:14:11;;;;;;;6.93;5.23;;;;;;;14.84;100.00;102869.72;7404851;19;20765;-55
2021/10/08 10:16:43;;;;;;;9.50;3.90;;;;;;;14.87;100.00;102864.66;7398010;19;20435;-51
2021/10/08 10:19:13;;;;;;;11.83;7.33;;;;;;;15.02;100.00;102864.66;7405792;19;20424;-55
2021/10/08 10:21:42;;;;;;;11.37;6.40;;;;;;;15.22;100.00;102868.41;7402464;19;20499;-50
2021/10/08 10:24:12;;;;;;;5.50;3.80;;;;;;;15.34;100.00;102870.78;7404722;19;20494;-55
2021/10/08 10:26:41;;;;;;;6.30;3.37;;;;;;;15.44;100.00;102872.19;7398621;19;20507;-50
2021/10/08 10:29:12;;;;;;;6.70;4.33;;;;;;;15.47;100.00;102867.16;7405803;19;20873;-51
2021/10/08 10:31:44;;;;;;;10.80;5.67;;;;;;;15.58;100.00;102870.34;7398137;19;20515;-53
2021/10/08 10:34:14;;;;;;;20.03;12.63;;;;;;;15.68;100.00;102873.47;7404399;19;20446;-53
2021/10/08 10:36:44;;;;;;;34.97;24.27;;;;;;;15.75;100.00;102871.25;7400946;19;20450;-55
2021/10/08 10:39:19;;;;;;;6.13;3.90;;;;;;;15.77;100.00;102863.53;7405780;19;20468;-55
2021/10/08 10:41:50;;;;;;;8.27;3.00;;;;;;;15.83;100.00;102876.00;7398467;19;20443;-54
2021/10/08 10:44:23;;;;;;;5.10;3.20;;;;;;;15.84;100.00;102880.38;7403241;19;20423;-56
2021/10/08 10:47:16;;;;;;;4.40;2.80;;;;;;;15.77;100.00;102881.75;7397348;19;20503;-54
2021/10/08 10:49:54;;;;;;;5.67;2.87;;;;;;;15.89;100.00;102874.59;7404780;19;20670;-51
2021/10/08 10:52:30;;;;;;;4.93;3.30;;;;;;;16.11;100.00;102875.78;7399115;19;20707;-57
2021/10/08 10:55:06;;;;;;;6.43;4.30;;;;;;;15.99;100.00;102876.03;7402474;19;20478;-54
2021/10/08 10:58:10;;;;;;;10.90;3.90;;;;;;;15.96;100.00;102870.66;7404297;19;20442;-53
2021/10/08 11:00:45;;;;;;;5.10;3.20;;;;;;;15.99;100.00;102864.72;7397551;19;20453;-54
2021/10/08 11:03:20;;;;;;;6.87;3.90;;;;;;;16.08;100.00;102870.41;7404125;19;20482;-57
2021/10/08 11:06:24;;;;;;;7.17;3.57;;;;;;;16.08;100.00;102864.28;7401298;19;20468;-52
2021/10/08 11:09:21;;;;;;;7.10;4.70;;;;;;;16.19;100.00;102874.47;7404796;19;20395;-56
2021/10/08 11:12:34;;;;;;;8.00;3.30;;;;;;;16.19;100.00;102869.28;7377561;19;20526;-53
2021/10/08 11:15:34;;;;;;;4.00;2.50;;;;;;;16.15;100.00;102877.72;7395536;19;20408;-54
2021/10/08 11:18:04;;;;;;;11.80;5.57;;;;;;;16.12;100.00;102866.25;7403912;19;20399;-54
2021/10/08 11:20:49;;;;;;;15.73;8.63;;;;;;;16.28;100.00;102863.66;7400002;19;20407;-59
2021/10/08 11:23:27;;;;;;;8.07;5.47;;;;;;;16.09;100.00;102872.19;7402883;19;20516;-56
2021/10/08 11:25:59;;;;;;;14.43;9.67;;;;;;;16.32;100.00;102859.50;7393315;19;20441;-51
2021/10/08 11:28:30;;;;;;;23.97;12.20;;;;;;;16.25;100.00;102857.38;7399780;19;20398;-51
2021/10/08 11:31:00;;;;;;;16.93;9.00;;;;;;;16.44;100.00;102860.13;7393191;19;20422;-56
2021/10/08 11:33:35;;;;;;;14.27;8.47;;;;;;;16.55;100.00;102855.44;7399340;19;20773;-53